sensor_id;sensor_type;location;lat;lon;timestamp;P1;durP1;ratioP1;P2;durP2;ratioP2
15102;SDS011;7652;53.584;9.998;2023-03-04T00:02:01;6.87;;;2.57;;
15102;SDS011;7652;53.584;9.998;2023-03-04T00:05:05;7.63;;;2.10;;
15102;SDS011;7652;53.584;9.998;2023-03-04T00:08:08;7.53;;;2.90;;
15102;SDS011;7652;53.584;9.998;2023-03-04T00:11:13;7.97;;;2.53;;
15102;SDS011;7652;53.584;9.998;2023-03-04T00:14:16;7.33;;;1.97;;
15102;SDS011;7652;53.584;9.998;2023-03-04T00:17:19;10.33;;;2.27;;
15102;SDS011;7652;53.584;9.998;2023-03-04T00:20:22;4.73;;;1.70;;
15102;SDS011;7652;53.584;9.998;2023-03-04T00:23:25;7.70;;;1.80;;
15102;SDS011;7652;53.584;9.998;2023-03-04T00:26:30;4.33;;;1.77;;
15102;SDS011;7652;53.584;9.998;2023-03-04T00:29:32;4.30;;;1.77;;
15102;SDS011;7652;53.584;9.998;2023-03-04T00:32:35;6.40;;;1.50;;
15102;SDS011;7652;53.584;9.998;2023-03-04T00:35:39;6.80;;;1.70;;
15102;SDS011;7652;53.584;9.998;2023-03-04T00:38:42;7.00;;;2.07;;
15102;SDS011;7652;53.584;9.998;2023-03-04T00:41:46;6.90;;;1.40;;
15102;SDS011;7652;53.584;9.998;2023-03-04T00:44:49;5.27;;;1.47;;
15102;SDS011;7652;53.584;9.998;2023-03-04T00:47:52;6.57;;;1.40;;
15102;SDS011;7652;53.584;9.998;2023-03-04T00:50:55;8.20;;;1.47;;
15102;SDS011;7652;53.584;9.998;2023-03-04T00:53:58;6.70;;;1.90;;
15102;SDS011;7652;53.584;9.998;2023-03-04T00:57:02;7.50;;;1.97;;
15102;SDS011;7652;53.584;9.998;2023-03-04T01:00:06;8.20;;;1.83;;
15102;SDS011;7652;53.584;9.998;2023-03-04T01:03:10;3.17;;;1.30;;
15102;SDS011;7652;53.584;9.998;2023-03-04T01:06:13;7.00;;;1.40;;
15102;SDS011;7652;53.584;9.998;2023-03-04T01:09:16;3.73;;;1.20;;
15102;SDS011;7652;53.584;9.998;2023-03-04T01:12:20;4.00;;;1.10;;
15102;SDS011;7652;53.584;9.998;2023-03-04T01:15:23;7.73;;;1.33;;
15102;SDS011;7652;53.584;9.998;2023-03-04T01:18:26;6.70;;;1.03;;
15102;SDS011;7652;53.584;9.998;2023-03-04T01:21:29;3.80;;;1.10;;
15102;SDS011;7652;53.584;9.998;2023-03-04T01:24:32;8.13;;;1.77;;
15102;SDS011;7652;53.584;9.998;2023-03-04T01:27:36;5.43;;;1.40;;
15102;SDS011;7652;53.584;9.998;2023-03-04T01:30:39;6.30;;;1.27;;
15102;SDS011;7652;53.584;9.998;2023-03-04T01:33:42;2.80;;;0.80;;
15102;SDS011;7652;53.584;9.998;2023-03-04T01:36:45;7.03;;;1.33;;
15102;SDS011;7652;53.584;9.998;2023-03-04T01:39:48;7.53;;;1.40;;
15102;SDS011;7652;53.584;9.998;2023-03-04T01:42:52;2.63;;;0.93;;
15102;SDS011;7652;53.584;9.998;2023-03-04T01:45:56;8.47;;;1.20;;
15102;SDS011;7652;53.584;9.998;2023-03-04T01:49:00;5.10;;;1.13;;
15102;SDS011;7652;53.584;9.998;2023-03-04T01:52:03;2.47;;;1.10;;
15102;SDS011;7652;53.584;9.998;2023-03-04T01:55:09;5.13;;;1.00;;
15102;SDS011;7652;53.584;9.998;2023-03-04T01:58:17;2.87;;;0.93;;
15102;SDS011;7652;53.584;9.998;2023-03-04T02:01:20;5.50;;;1.00;;
15102;SDS011;7652;53.584;9.998;2023-03-04T02:04:24;8.13;;;1.27;;
15102;SDS011;7652;53.584;9.998;2023-03-04T02:07:29;3.80;;;0.90;;
15102;SDS011;7652;53.584;9.998;2023-03-04T02:10:32;7.70;;;1.23;;
15102;SDS011;7652;53.584;9.998;2023-03-04T02:13:37;5.47;;;1.20;;
15102;SDS011;7652;53.584;9.998;2023-03-04T02:16:40;8.03;;;1.23;;
15102;SDS011;7652;53.584;9.998;2023-03-04T02:19:46;6.03;;;1.17;;
15102;SDS011;7652;53.584;9.998;2023-03-04T02:22:57;4.87;;;1.13;;
15102;SDS011;7652;53.584;9.998;2023-03-04T02:26:10;3.70;;;0.70;;
15102;SDS011;7652;53.584;9.998;2023-03-04T02:29:17;6.17;;;1.00;;
15102;SDS011;7652;53.584;9.998;2023-03-04T02:32:20;4.47;;;0.73;;
15102;SDS011;7652;53.584;9.998;2023-03-04T02:35:23;3.93;;;0.90;;
15102;SDS011;7652;53.584;9.998;2023-03-04T02:38:27;7.07;;;1.33;;
15102;SDS011;7652;53.584;9.998;2023-03-04T02:41:31;5.40;;;1.10;;
15102;SDS011;7652;53.584;9.998;2023-03-04T02:44:35;4.90;;;1.50;;
15102;SDS011;7652;53.584;9.998;2023-03-04T02:47:39;4.13;;;0.80;;
15102;SDS011;7652;53.584;9.998;2023-03-04T02:50:43;5.13;;;1.33;;
15102;SDS011;7652;53.584;9.998;2023-03-04T02:53:48;6.77;;;1.30;;
15102;SDS011;7652;53.584;9.998;2023-03-04T02:56:52;4.77;;;1.00;;
15102;SDS011;7652;53.584;9.998;2023-03-04T02:59:58;7.00;;;1.27;;
15102;SDS011;7652;53.584;9.998;2023-03-04T03:03:01;5.23;;;1.33;;
15102;SDS011;7652;53.584;9.998;2023-03-04T03:06:05;5.70;;;1.47;;
15102;SDS011;7652;53.584;9.998;2023-03-04T03:09:08;7.40;;;1.63;;
15102;SDS011;7652;53.584;9.998;2023-03-04T03:12:12;6.67;;;1.53;;
15102;SDS011;7652;53.584;9.998;2023-03-04T03:15:15;6.80;;;2.47;;
15102;SDS011;7652;53.584;9.998;2023-03-04T03:18:19;5.83;;;1.50;;
15102;SDS011;7652;53.584;9.998;2023-03-04T03:21:22;6.37;;;1.83;;
15102;SDS011;7652;53.584;9.998;2023-03-04T03:24:25;5.37;;;1.30;;
15102;SDS011;7652;53.584;9.998;2023-03-04T03:27:29;6.13;;;1.37;;
15102;SDS011;7652;53.584;9.998;2023-03-04T03:30:32;4.03;;;1.23;;
15102;SDS011;7652;53.584;9.998;2023-03-04T03:33:35;4.30;;;0.80;;
15102;SDS011;7652;53.584;9.998;2023-03-04T03:36:38;8.03;;;1.50;;
15102;SDS011;7652;53.584;9.998;2023-03-04T03:39:42;4.90;;;1.00;;
15102;SDS011;7652;53.584;9.998;2023-03-04T03:42:46;6.87;;;1.13;;
15102;SDS011;7652;53.584;9.998;2023-03-04T03:45:49;4.67;;;1.03;;
15102;SDS011;7652;53.584;9.998;2023-03-04T03:48:53;7.10;;;1.40;;
15102;SDS011;7652;53.584;9.998;2023-03-04T03:51:56;7.03;;;1.77;;
15102;SDS011;7652;53.584;9.998;2023-03-04T03:54:59;7.37;;;1.57;;
15102;SDS011;7652;53.584;9.998;2023-03-04T03:58:04;6.63;;;1.70;;
15102;SDS011;7652;53.584;9.998;2023-03-04T04:01:07;6.23;;;1.30;;
15102;SDS011;7652;53.584;9.998;2023-03-04T04:04:11;9.40;;;1.77;;
15102;SDS011;7652;53.584;9.998;2023-03-04T04:07:15;5.10;;;1.30;;
15102;SDS011;7652;53.584;9.998;2023-03-04T04:10:18;9.13;;;1.33;;
15102;SDS011;7652;53.584;9.998;2023-03-04T04:13:23;6.53;;;1.40;;
15102;SDS011;7652;53.584;9.998;2023-03-04T04:16:26;9.57;;;1.43;;
15102;SDS011;7652;53.584;9.998;2023-03-04T04:19:29;11.37;;;1.33;;
15102;SDS011;7652;53.584;9.998;2023-03-04T04:22:32;7.67;;;1.47;;
15102;SDS011;7652;53.584;9.998;2023-03-04T04:25:35;7.70;;;1.80;;
15102;SDS011;7652;53.584;9.998;2023-03-04T04:28:39;7.47;;;1.80;;
15102;SDS011;7652;53.584;9.998;2023-03-04T04:31:43;3.90;;;1.50;;
15102;SDS011;7652;53.584;9.998;2023-03-04T04:34:46;6.27;;;1.47;;
15102;SDS011;7652;53.584;9.998;2023-03-04T04:37:49;4.70;;;1.50;;
15102;SDS011;7652;53.584;9.998;2023-03-04T04:40:52;8.47;;;1.67;;
15102;SDS011;7652;53.584;9.998;2023-03-04T04:43:59;5.63;;;1.63;;
15102;SDS011;7652;53.584;9.998;2023-03-04T04:47:01;11.43;;;1.93;;
15102;SDS011;7652;53.584;9.998;2023-03-04T04:50:05;5.07;;;1.70;;
15102;SDS011;7652;53.584;9.998;2023-03-04T04:53:09;10.50;;;1.73;;
15102;SDS011;7652;53.584;9.998;2023-03-04T04:56:14;9.50;;;1.90;;
15102;SDS011;7652;53.584;9.998;2023-03-04T04:59:19;7.57;;;1.63;;
15102;SDS011;7652;53.584;9.998;2023-03-04T05:02:23;9.87;;;1.77;;
15102;SDS011;7652;53.584;9.998;2023-03-04T05:05:26;6.00;;;1.80;;
15102;SDS011;7652;53.584;9.998;2023-03-04T05:08:29;8.43;;;2.07;;
15102;SDS011;7652;53.584;9.998;2023-03-04T05:11:32;9.37;;;1.90;;
15102;SDS011;7652;53.584;9.998;2023-03-04T05:14:36;6.97;;;1.20;;
15102;SDS011;7652;53.584;9.998;2023-03-04T05:17:39;4.30;;;2.13;;
15102;SDS011;7652;53.584;9.998;2023-03-04T05:20:42;7.23;;;1.67;;
15102;SDS011;7652;53.584;9.998;2023-03-04T05:23:45;7.67;;;1.37;;
15102;SDS011;7652;53.584;9.998;2023-03-04T05:26:48;4.80;;;1.67;;
15102;SDS011;7652;53.584;9.998;2023-03-04T05:29:52;9.47;;;1.60;;
15102;SDS011;7652;53.584;9.998;2023-03-04T05:32:55;3.90;;;2.00;;
15102;SDS011;7652;53.584;9.998;2023-03-04T05:35:58;8.57;;;1.60;;
15102;SDS011;7652;53.584;9.998;2023-03-04T05:39:02;6.43;;;2.33;;
15102;SDS011;7652;53.584;9.998;2023-03-04T05:42:05;11.43;;;2.63;;
15102;SDS011;7652;53.584;9.998;2023-03-04T05:45:10;13.30;;;2.43;;
15102;SDS011;7652;53.584;9.998;2023-03-04T05:48:13;10.20;;;1.90;;
15102;SDS011;7652;53.584;9.998;2023-03-04T05:51:16;6.50;;;1.87;;
15102;SDS011;7652;53.584;9.998;2023-03-04T05:54:19;14.37;;;2.03;;
15102;SDS011;7652;53.584;9.998;2023-03-04T05:57:22;16.73;;;2.50;;
15102;SDS011;7652;53.584;9.998;2023-03-04T06:00:26;17.73;;;2.50;;
15102;SDS011;7652;53.584;9.998;2023-03-04T06:03:29;12.43;;;1.90;;
15102;SDS011;7652;53.584;9.998;2023-03-04T06:06:32;7.93;;;2.17;;
15102;SDS011;7652;53.584;9.998;2023-03-04T06:09:35;14.13;;;2.60;;
15102;SDS011;7652;53.584;9.998;2023-03-04T06:12:38;11.10;;;2.63;;
15102;SDS011;7652;53.584;9.998;2023-03-04T06:15:43;13.03;;;3.20;;
15102;SDS011;7652;53.584;9.998;2023-03-04T06:18:46;11.60;;;3.00;;
15102;SDS011;7652;53.584;9.998;2023-03-04T06:21:49;12.60;;;2.37;;
15102;SDS011;7652;53.584;9.998;2023-03-04T06:24:52;12.03;;;2.53;;
15102;SDS011;7652;53.584;9.998;2023-03-04T06:27:55;10.27;;;1.97;;
15102;SDS011;7652;53.584;9.998;2023-03-04T06:30:59;14.57;;;3.10;;
15102;SDS011;7652;53.584;9.998;2023-03-04T06:34:02;10.03;;;2.60;;
15102;SDS011;7652;53.584;9.998;2023-03-04T06:37:05;14.13;;;2.10;;
15102;SDS011;7652;53.584;9.998;2023-03-04T06:40:09;11.13;;;2.10;;
15102;SDS011;7652;53.584;9.998;2023-03-04T06:43:13;10.43;;;2.23;;
15102;SDS011;7652;53.584;9.998;2023-03-04T06:46:17;10.33;;;2.40;;
15102;SDS011;7652;53.584;9.998;2023-03-04T06:49:21;9.63;;;1.97;;
15102;SDS011;7652;53.584;9.998;2023-03-04T06:52:24;12.17;;;2.30;;
15102;SDS011;7652;53.584;9.998;2023-03-04T06:55:27;10.77;;;1.73;;
15102;SDS011;7652;53.584;9.998;2023-03-04T06:58:30;9.93;;;2.10;;
15102;SDS011;7652;53.584;9.998;2023-03-04T07:01:34;17.37;;;2.30;;
15102;SDS011;7652;53.584;9.998;2023-03-04T07:04:38;7.17;;;1.57;;
15102;SDS011;7652;53.584;9.998;2023-03-04T07:07:41;8.33;;;1.40;;
15102;SDS011;7652;53.584;9.998;2023-03-04T07:10:44;7.03;;;1.47;;
15102;SDS011;7652;53.584;9.998;2023-03-04T07:13:48;5.80;;;2.20;;
15102;SDS011;7652;53.584;9.998;2023-03-04T07:16:52;10.37;;;2.00;;
15102;SDS011;7652;53.584;9.998;2023-03-04T07:19:55;7.27;;;1.43;;
15102;SDS011;7652;53.584;9.998;2023-03-04T07:22:58;10.43;;;1.80;;
15102;SDS011;7652;53.584;9.998;2023-03-04T07:26:01;11.00;;;1.87;;
15102;SDS011;7652;53.584;9.998;2023-03-04T07:29:05;9.83;;;1.60;;
15102;SDS011;7652;53.584;9.998;2023-03-04T07:32:09;8.07;;;1.83;;
15102;SDS011;7652;53.584;9.998;2023-03-04T07:35:13;5.60;;;1.10;;
15102;SDS011;7652;53.584;9.998;2023-03-04T07:38:16;9.83;;;1.93;;
15102;SDS011;7652;53.584;9.998;2023-03-04T07:41:19;9.07;;;2.23;;
15102;SDS011;7652;53.584;9.998;2023-03-04T07:44:23;8.73;;;2.00;;
15102;SDS011;7652;53.584;9.998;2023-03-04T07:47:27;7.93;;;1.67;;
15102;SDS011;7652;53.584;9.998;2023-03-04T07:50:31;13.20;;;2.13;;
15102;SDS011;7652;53.584;9.998;2023-03-04T07:53:34;11.13;;;2.70;;
15102;SDS011;7652;53.584;9.998;2023-03-04T07:56:38;12.10;;;2.50;;
15102;SDS011;7652;53.584;9.998;2023-03-04T07:59:41;8.77;;;1.70;;
15102;SDS011;7652;53.584;9.998;2023-03-04T08:02:46;14.03;;;1.80;;
15102;SDS011;7652;53.584;9.998;2023-03-04T08:05:49;12.40;;;2.53;;
15102;SDS011;7652;53.584;9.998;2023-03-04T08:08:54;14.43;;;2.77;;
15102;SDS011;7652;53.584;9.998;2023-03-04T08:11:58;14.40;;;2.87;;
15102;SDS011;7652;53.584;9.998;2023-03-04T08:15:02;12.00;;;2.60;;
15102;SDS011;7652;53.584;9.998;2023-03-04T08:18:06;13.27;;;2.50;;
15102;SDS011;7652;53.584;9.998;2023-03-04T08:21:10;9.30;;;2.50;;
15102;SDS011;7652;53.584;9.998;2023-03-04T08:24:14;8.83;;;1.97;;
15102;SDS011;7652;53.584;9.998;2023-03-04T08:27:17;12.50;;;2.47;;
15102;SDS011;7652;53.584;9.998;2023-03-04T08:30:20;10.27;;;2.83;;
15102;SDS011;7652;53.584;9.998;2023-03-04T08:33:24;17.83;;;3.33;;
15102;SDS011;7652;53.584;9.998;2023-03-04T08:36:27;9.90;;;2.00;;
15102;SDS011;7652;53.584;9.998;2023-03-04T08:39:30;13.00;;;2.10;;
15102;SDS011;7652;53.584;9.998;2023-03-04T08:42:36;12.73;;;2.77;;
15102;SDS011;7652;53.584;9.998;2023-03-04T08:45:39;15.03;;;2.63;;
15102;SDS011;7652;53.584;9.998;2023-03-04T08:48:43;13.40;;;2.10;;
15102;SDS011;7652;53.584;9.998;2023-03-04T08:51:47;15.30;;;3.33;;
15102;SDS011;7652;53.584;9.998;2023-03-04T08:54:50;10.20;;;3.13;;
15102;SDS011;7652;53.584;9.998;2023-03-04T08:57:53;17.47;;;3.43;;
15102;SDS011;7652;53.584;9.998;2023-03-04T09:00:58;9.00;;;2.47;;
15102;SDS011;7652;53.584;9.998;2023-03-04T09:04:03;13.50;;;2.43;;
15102;SDS011;7652;53.584;9.998;2023-03-04T09:07:06;10.93;;;2.67;;
15102;SDS011;7652;53.584;9.998;2023-03-04T09:10:10;12.57;;;3.43;;
15102;SDS011;7652;53.584;9.998;2023-03-04T09:13:13;15.87;;;2.50;;
15102;SDS011;7652;53.584;9.998;2023-03-04T09:16:17;16.90;;;2.97;;
15102;SDS011;7652;53.584;9.998;2023-03-04T09:19:21;16.77;;;2.87;;
15102;SDS011;7652;53.584;9.998;2023-03-04T09:22:24;14.17;;;2.63;;
15102;SDS011;7652;53.584;9.998;2023-03-04T09:25:27;12.17;;;2.47;;
15102;SDS011;7652;53.584;9.998;2023-03-04T09:28:30;16.50;;;2.70;;
15102;SDS011;7652;53.584;9.998;2023-03-04T09:31:33;8.60;;;2.50;;
15102;SDS011;7652;53.584;9.998;2023-03-04T09:34:38;12.83;;;3.00;;
15102;SDS011;7652;53.584;9.998;2023-03-04T09:37:41;13.27;;;2.70;;
15102;SDS011;7652;53.584;9.998;2023-03-04T09:40:46;15.53;;;2.73;;
15102;SDS011;7652;53.584;9.998;2023-03-04T09:43:51;14.60;;;2.77;;
15102;SDS011;7652;53.584;9.998;2023-03-04T09:46:56;14.03;;;2.47;;
15102;SDS011;7652;53.584;9.998;2023-03-04T09:50:03;12.73;;;2.87;;
15102;SDS011;7652;53.584;9.998;2023-03-04T09:53:12;11.30;;;2.83;;
15102;SDS011;7652;53.584;9.998;2023-03-04T09:56:22;12.63;;;2.83;;
15102;SDS011;7652;53.584;9.998;2023-03-04T09:59:28;11.33;;;2.07;;
15102;SDS011;7652;53.584;9.998;2023-03-04T10:02:40;12.07;;;2.93;;
15102;SDS011;7652;53.584;9.998;2023-03-04T10:05:50;10.73;;;2.33;;
15102;SDS011;7652;53.584;9.998;2023-03-04T10:08:57;11.57;;;2.10;;
15102;SDS011;7652;53.584;9.998;2023-03-04T10:12:04;10.10;;;2.70;;
15102;SDS011;7652;53.584;9.998;2023-03-04T10:15:18;14.83;;;2.77;;
15102;SDS011;7652;53.584;9.998;2023-03-04T10:18:26;9.80;;;2.07;;
15102;SDS011;7652;53.584;9.998;2023-03-04T10:21:37;14.50;;;2.90;;
15102;SDS011;7652;53.584;9.998;2023-03-04T10:24:43;11.80;;;2.40;;
15102;SDS011;7652;53.584;9.998;2023-03-04T10:27:49;16.80;;;3.33;;
15102;SDS011;7652;53.584;9.998;2023-03-04T10:30:56;13.80;;;2.77;;
15102;SDS011;7652;53.584;9.998;2023-03-04T10:34:03;13.87;;;2.97;;
15102;SDS011;7652;53.584;9.998;2023-03-04T10:37:08;12.37;;;2.60;;
15102;SDS011;7652;53.584;9.998;2023-03-04T10:40:19;17.23;;;2.90;;
15102;SDS011;7652;53.584;9.998;2023-03-04T10:43:23;8.53;;;2.37;;
15102;SDS011;7652;53.584;9.998;2023-03-04T10:46:27;14.77;;;2.77;;
15102;SDS011;7652;53.584;9.998;2023-03-04T10:49:30;21.10;;;3.13;;
15102;SDS011;7652;53.584;9.998;2023-03-04T10:52:37;8.27;;;2.20;;
15102;SDS011;7652;53.584;9.998;2023-03-04T10:55:43;14.47;;;2.87;;
15102;SDS011;7652;53.584;9.998;2023-03-04T10:58:46;9.43;;;2.40;;
15102;SDS011;7652;53.584;9.998;2023-03-04T11:01:49;14.27;;;2.30;;
15102;SDS011;7652;53.584;9.998;2023-03-04T11:04:56;14.70;;;2.70;;
15102;SDS011;7652;53.584;9.998;2023-03-04T11:08:14;11.67;;;2.50;;
15102;SDS011;7652;53.584;9.998;2023-03-04T11:11:27;11.50;;;2.23;;
15102;SDS011;7652;53.584;9.998;2023-03-04T11:14:35;11.87;;;2.83;;
15102;SDS011;7652;53.584;9.998;2023-03-04T11:17:42;15.40;;;2.27;;
15102;SDS011;7652;53.584;9.998;2023-03-04T11:20:48;15.70;;;2.47;;
15102;SDS011;7652;53.584;9.998;2023-03-04T11:23:55;9.23;;;2.17;;
15102;SDS011;7652;53.584;9.998;2023-03-04T11:27:02;8.93;;;2.20;;
15102;SDS011;7652;53.584;9.998;2023-03-04T11:33:40;11.83;;;3.23;;
15102;SDS011;7652;53.584;9.998;2023-03-04T11:36:50;10.90;;;2.53;;
15102;SDS011;7652;53.584;9.998;2023-03-04T11:40:00;11.10;;;2.37;;
15102;SDS011;7652;53.584;9.998;2023-03-04T11:43:08;12.07;;;3.10;;
15102;SDS011;7652;53.584;9.998;2023-03-04T11:46:23;13.27;;;2.70;;
15102;SDS011;7652;53.584;9.998;2023-03-04T11:50:06;9.83;;;3.10;;
15102;SDS011;7652;53.584;9.998;2023-03-04T11:53:21;8.33;;;2.13;;
15102;SDS011;7652;53.584;9.998;2023-03-04T11:56:33;8.67;;;2.30;;
15102;SDS011;7652;53.584;9.998;2023-03-04T11:59:47;13.67;;;2.53;;
15102;SDS011;7652;53.584;9.998;2023-03-04T12:03:12;8.10;;;2.30;;
15102;SDS011;7652;53.584;9.998;2023-03-04T12:06:28;11.33;;;2.37;;
15102;SDS011;7652;53.584;9.998;2023-03-04T12:09:39;14.10;;;3.43;;
15102;SDS011;7652;53.584;9.998;2023-03-04T12:12:54;13.93;;;2.83;;
15102;SDS011;7652;53.584;9.998;2023-03-04T12:16:10;17.37;;;3.20;;
15102;SDS011;7652;53.584;9.998;2023-03-04T12:19:26;14.60;;;2.70;;
15102;SDS011;7652;53.584;9.998;2023-03-04T12:22:41;12.10;;;2.30;;
15102;SDS011;7652;53.584;9.998;2023-03-04T12:25:48;9.87;;;2.37;;
15102;SDS011;7652;53.584;9.998;2023-03-04T12:28:58;13.80;;;2.37;;
15102;SDS011;7652;53.584;9.998;2023-03-04T12:32:07;11.20;;;2.57;;
15102;SDS011;7652;53.584;9.998;2023-03-04T12:35:20;11.03;;;3.13;;
15102;SDS011;7652;53.584;9.998;2023-03-04T12:38:38;14.00;;;2.73;;
15102;SDS011;7652;53.584;9.998;2023-03-04T12:41:57;15.73;;;2.63;;
15102;SDS011;7652;53.584;9.998;2023-03-04T12:45:14;9.77;;;2.33;;
15102;SDS011;7652;53.584;9.998;2023-03-04T12:48:25;12.27;;;2.90;;
15102;SDS011;7652;53.584;9.998;2023-03-04T12:51:35;6.50;;;2.30;;
15102;SDS011;7652;53.584;9.998;2023-03-04T12:54:46;10.80;;;1.97;;
15102;SDS011;7652;53.584;9.998;2023-03-04T12:57:53;11.57;;;2.27;;
15102;SDS011;7652;53.584;9.998;2023-03-04T13:01:01;8.03;;;1.87;;
15102;SDS011;7652;53.584;9.998;2023-03-04T13:04:11;12.70;;;2.73;;
15102;SDS011;7652;53.584;9.998;2023-03-04T13:07:20;15.33;;;3.10;;
15102;SDS011;7652;53.584;9.998;2023-03-04T13:10:29;6.93;;;2.20;;
15102;SDS011;7652;53.584;9.998;2023-03-04T13:13:34;11.70;;;2.30;;
15102;SDS011;7652;53.584;9.998;2023-03-04T13:16:41;7.77;;;2.20;;
15102;SDS011;7652;53.584;9.998;2023-03-04T13:19:47;14.93;;;3.23;;
15102;SDS011;7652;53.584;9.998;2023-03-04T13:22:54;9.90;;;2.30;;
15102;SDS011;7652;53.584;9.998;2023-03-04T13:29:32;12.53;;;2.47;;
15102;SDS011;7652;53.584;9.998;2023-03-04T13:32:38;12.07;;;2.07;;
15102;SDS011;7652;53.584;9.998;2023-03-04T13:35:47;8.70;;;2.20;;
15102;SDS011;7652;53.584;9.998;2023-03-04T13:38:56;10.20;;;2.23;;
15102;SDS011;7652;53.584;9.998;2023-03-04T13:42:02;6.50;;;2.10;;
15102;SDS011;7652;53.584;9.998;2023-03-04T13:45:30;9.97;;;2.33;;
15102;SDS011;7652;53.584;9.998;2023-03-04T13:48:37;12.37;;;2.77;;
15102;SDS011;7652;53.584;9.998;2023-03-04T13:51:40;7.37;;;2.27;;
15102;SDS011;7652;53.584;9.998;2023-03-04T13:54:46;9.70;;;2.40;;
15102;SDS011;7652;53.584;9.998;2023-03-04T13:57:49;11.07;;;1.93;;
15102;SDS011;7652;53.584;9.998;2023-03-04T14:00:53;6.47;;;2.30;;
15102;SDS011;7652;53.584;9.998;2023-03-04T14:03:59;4.80;;;1.87;;
15102;SDS011;7652;53.584;9.998;2023-03-04T14:07:15;5.93;;;1.77;;
15102;SDS011;7652;53.584;9.998;2023-03-04T14:10:21;8.90;;;2.10;;
15102;SDS011;7652;53.584;9.998;2023-03-04T14:13:25;5.90;;;1.90;;
15102;SDS011;7652;53.584;9.998;2023-03-04T14:16:29;10.17;;;1.97;;
15102;SDS011;7652;53.584;9.998;2023-03-04T14:19:42;10.90;;;2.47;;
15102;SDS011;7652;53.584;9.998;2023-03-04T14:22:47;8.43;;;2.23;;
15102;SDS011;7652;53.584;9.998;2023-03-04T14:25:50;8.73;;;2.13;;
15102;SDS011;7652;53.584;9.998;2023-03-04T14:28:53;7.00;;;2.00;;
15102;SDS011;7652;53.584;9.998;2023-03-04T14:31:57;6.13;;;1.90;;
15102;SDS011;7652;53.584;9.998;2023-03-04T14:35:05;7.83;;;2.10;;
15102;SDS011;7652;53.584;9.998;2023-03-04T14:38:21;7.33;;;1.83;;
15102;SDS011;7652;53.584;9.998;2023-03-04T14:41:26;5.30;;;1.67;;
15102;SDS011;7652;53.584;9.998;2023-03-04T14:44:33;7.63;;;1.93;;
15102;SDS011;7652;53.584;9.998;2023-03-04T14:47:39;11.10;;;3.27;;
15102;SDS011;7652;53.584;9.998;2023-03-04T14:50:50;9.10;;;1.83;;
15102;SDS011;7652;53.584;9.998;2023-03-04T14:53:54;14.73;;;2.10;;
15102;SDS011;7652;53.584;9.998;2023-03-04T14:56:58;8.07;;;2.13;;
15102;SDS011;7652;53.584;9.998;2023-03-04T15:00:13;9.57;;;2.10;;
15102;SDS011;7652;53.584;9.998;2023-03-04T15:03:18;16.83;;;3.50;;
15102;SDS011;7652;53.584;9.998;2023-03-04T15:06:26;12.17;;;2.33;;
15102;SDS011;7652;53.584;9.998;2023-03-04T15:09:31;10.67;;;2.30;;
15102;SDS011;7652;53.584;9.998;2023-03-04T15:12:34;5.60;;;1.57;;
15102;SDS011;7652;53.584;9.998;2023-03-04T15:15:40;8.53;;;2.10;;
15102;SDS011;7652;53.584;9.998;2023-03-04T15:18:55;6.30;;;1.70;;
15102;SDS011;7652;53.584;9.998;2023-03-04T15:22:05;9.77;;;1.70;;
15102;SDS011;7652;53.584;9.998;2023-03-04T15:25:10;7.50;;;2.20;;
15102;SDS011;7652;53.584;9.998;2023-03-04T15:28:16;5.50;;;1.60;;
15102;SDS011;7652;53.584;9.998;2023-03-04T15:31:21;8.53;;;2.00;;
15102;SDS011;7652;53.584;9.998;2023-03-04T15:34:26;8.80;;;1.53;;
15102;SDS011;7652;53.584;9.998;2023-03-04T15:37:30;11.50;;;2.07;;
15102;SDS011;7652;53.584;9.998;2023-03-04T15:40:34;8.27;;;1.97;;
15102;SDS011;7652;53.584;9.998;2023-03-04T15:43:40;9.13;;;1.93;;
15102;SDS011;7652;53.584;9.998;2023-03-04T15:46:43;12.40;;;1.40;;
15102;SDS011;7652;53.584;9.998;2023-03-04T15:49:46;9.23;;;1.97;;
15102;SDS011;7652;53.584;9.998;2023-03-04T15:52:50;9.83;;;1.97;;
15102;SDS011;7652;53.584;9.998;2023-03-04T15:55:55;6.23;;;1.50;;
15102;SDS011;7652;53.584;9.998;2023-03-04T15:58:59;6.07;;;1.40;;
15102;SDS011;7652;53.584;9.998;2023-03-04T16:02:08;9.70;;;2.03;;
15102;SDS011;7652;53.584;9.998;2023-03-04T16:05:16;15.80;;;2.33;;
15102;SDS011;7652;53.584;9.998;2023-03-04T16:08:23;9.80;;;1.80;;
15102;SDS011;7652;53.584;9.998;2023-03-04T16:11:27;5.83;;;1.77;;
15102;SDS011;7652;53.584;9.998;2023-03-04T16:14:34;10.33;;;1.97;;
15102;SDS011;7652;53.584;9.998;2023-03-04T16:17:37;10.43;;;2.07;;
15102;SDS011;7652;53.584;9.998;2023-03-04T16:20:44;11.37;;;2.60;;
15102;SDS011;7652;53.584;9.998;2023-03-04T16:23:50;7.77;;;1.70;;
15102;SDS011;7652;53.584;9.998;2023-03-04T16:26:54;10.30;;;1.90;;
15102;SDS011;7652;53.584;9.998;2023-03-04T16:29:57;7.50;;;1.93;;
15102;SDS011;7652;53.584;9.998;2023-03-04T16:33:00;8.13;;;1.57;;
15102;SDS011;7652;53.584;9.998;2023-03-04T16:36:08;9.20;;;2.23;;
15102;SDS011;7652;53.584;9.998;2023-03-04T16:39:18;6.77;;;1.70;;
15102;SDS011;7652;53.584;9.998;2023-03-04T16:42:22;7.93;;;1.50;;
15102;SDS011;7652;53.584;9.998;2023-03-04T16:45:27;9.43;;;1.37;;
15102;SDS011;7652;53.584;9.998;2023-03-04T16:48:31;6.07;;;1.40;;
15102;SDS011;7652;53.584;9.998;2023-03-04T16:51:38;7.13;;;2.00;;
15102;SDS011;7652;53.584;9.998;2023-03-04T16:54:45;7.93;;;1.27;;
15102;SDS011;7652;53.584;9.998;2023-03-04T16:57:48;7.90;;;1.33;;
15102;SDS011;7652;53.584;9.998;2023-03-04T17:00:52;6.13;;;1.60;;
15102;SDS011;7652;53.584;9.998;2023-03-04T17:03:56;9.77;;;1.93;;
15102;SDS011;7652;53.584;9.998;2023-03-04T17:06:59;11.43;;;2.23;;
15102;SDS011;7652;53.584;9.998;2023-03-04T17:10:04;8.20;;;1.50;;
15102;SDS011;7652;53.584;9.998;2023-03-04T17:13:07;6.50;;;1.80;;
15102;SDS011;7652;53.584;9.998;2023-03-04T17:16:11;5.43;;;1.33;;
15102;SDS011;7652;53.584;9.998;2023-03-04T17:19:15;8.53;;;2.00;;
15102;SDS011;7652;53.584;9.998;2023-03-04T17:22:18;4.13;;;1.30;;
15102;SDS011;7652;53.584;9.998;2023-03-04T17:25:22;4.77;;;1.40;;
15102;SDS011;7652;53.584;9.998;2023-03-04T17:28:26;5.83;;;1.83;;
15102;SDS011;7652;53.584;9.998;2023-03-04T17:31:29;8.37;;;1.40;;
15102;SDS011;7652;53.584;9.998;2023-03-04T17:34:32;10.87;;;3.87;;
15102;SDS011;7652;53.584;9.998;2023-03-04T17:37:36;5.63;;;1.63;;
15102;SDS011;7652;53.584;9.998;2023-03-04T17:40:40;8.33;;;1.60;;
15102;SDS011;7652;53.584;9.998;2023-03-04T17:43:44;8.67;;;1.60;;
15102;SDS011;7652;53.584;9.998;2023-03-04T17:46:48;11.50;;;1.73;;
15102;SDS011;7652;53.584;9.998;2023-03-04T17:49:51;5.20;;;1.60;;
15102;SDS011;7652;53.584;9.998;2023-03-04T17:52:54;5.07;;;1.40;;
15102;SDS011;7652;53.584;9.998;2023-03-04T17:55:59;7.03;;;1.70;;
15102;SDS011;7652;53.584;9.998;2023-03-04T17:59:05;9.83;;;1.90;;
15102;SDS011;7652;53.584;9.998;2023-03-04T18:02:12;8.23;;;1.60;;
15102;SDS011;7652;53.584;9.998;2023-03-04T18:05:16;10.00;;;1.73;;
15102;SDS011;7652;53.584;9.998;2023-03-04T18:08:19;3.43;;;0.90;;
15102;SDS011;7652;53.584;9.998;2023-03-04T18:11:26;10.10;;;2.00;;
15102;SDS011;7652;53.584;9.998;2023-03-04T18:14:29;9.57;;;2.47;;
15102;SDS011;7652;53.584;9.998;2023-03-04T18:17:32;6.77;;;2.00;;
15102;SDS011;7652;53.584;9.998;2023-03-04T18:20:35;3.53;;;1.40;;
15102;SDS011;7652;53.584;9.998;2023-03-04T18:23:38;11.17;;;2.20;;
15102;SDS011;7652;53.584;9.998;2023-03-04T18:26:43;3.30;;;1.27;;
15102;SDS011;7652;53.584;9.998;2023-03-04T18:29:46;8.97;;;1.90;;
15102;SDS011;7652;53.584;9.998;2023-03-04T18:32:49;10.93;;;1.73;;
15102;SDS011;7652;53.584;9.998;2023-03-04T18:35:56;10.27;;;2.10;;
15102;SDS011;7652;53.584;9.998;2023-03-04T18:39:00;7.70;;;1.80;;
15102;SDS011;7652;53.584;9.998;2023-03-04T18:42:07;10.37;;;2.03;;
15102;SDS011;7652;53.584;9.998;2023-03-04T18:45:10;5.00;;;1.67;;
15102;SDS011;7652;53.584;9.998;2023-03-04T18:48:13;5.63;;;1.37;;
15102;SDS011;7652;53.584;9.998;2023-03-04T18:51:16;5.70;;;1.53;;
15102;SDS011;7652;53.584;9.998;2023-03-04T18:54:20;6.87;;;1.60;;